createdAt,value
2022-12-08T00:00:10.823Z,1000.0
2022-12-08T00:01:11.020Z,1000.1
2022-12-08T00:02:11.241Z,1000.1
2022-12-08T00:03:11.252Z,1000.0
2022-12-08T00:04:10.863Z,1000.0
2022-12-08T00:05:10.864Z,1000.0
2022-12-08T00:06:10.871Z,1000.0
2022-12-08T00:07:10.883Z,1000.0
2022-12-08T00:08:11.074Z,1000.0
2022-12-08T00:09:10.902Z,1000.0
2022-12-08T00:10:47.607Z,1000.0
2022-12-08T00:11:10.915Z,999.9
2022-12-08T00:12:10.925Z,999.9
2022-12-08T00:13:10.946Z,1000.0
2022-12-08T00:14:10.988Z,999.9
2022-12-08T00:15:10.979Z,999.9
2022-12-08T00:16:11.127Z,999.9
2022-12-08T00:17:10.996Z,999.9
2022-12-08T00:18:10.996Z,999.8
2022-12-08T00:19:11.012Z,999.9
2022-12-08T00:20:11.016Z,999.8
2022-12-08T00:21:11.023Z,999.8
2022-12-08T00:22:11.036Z,999.8
2022-12-08T00:23:11.058Z,999.8
2022-12-08T00:24:11.061Z,999.8
2022-12-08T00:25:11.067Z,999.8
2022-12-08T00:26:11.080Z,999.7
2022-12-08T00:27:11.103Z,999.7
2022-12-08T00:28:11.110Z,999.7
2022-12-08T00:29:17.769Z,999.7
2022-12-08T00:30:11.130Z,999.8
2022-12-08T00:31:11.156Z,999.7
2022-12-08T00:32:11.264Z,999.6
2022-12-08T00:33:11.175Z,999.7
2022-12-08T00:34:11.171Z,999.8
2022-12-08T00:35:11.188Z,999.8
2022-12-08T00:36:11.207Z,999.7
2022-12-08T00:37:11.215Z,999.6
2022-12-08T00:38:11.225Z,999.7
2022-12-08T00:39:11.233Z,999.6
2022-12-08T00:40:11.246Z,999.7
2022-12-08T00:41:11.258Z,999.6
2022-12-08T00:42:11.282Z,999.7
2022-12-08T00:43:11.275Z,999.6
2022-12-08T00:44:11.298Z,999.6
2022-12-08T00:45:11.314Z,999.6
2022-12-08T00:46:11.440Z,999.7
2022-12-08T00:47:11.322Z,999.6
2022-12-08T00:48:11.339Z,999.6
2022-12-08T00:49:11.337Z,999.6
2022-12-08T00:50:11.347Z,999.4
2022-12-08T00:51:11.360Z,999.5
2022-12-08T00:52:11.382Z,999.4
2022-12-08T00:53:11.385Z,999.5
2022-12-08T00:54:11.391Z,999.5
2022-12-08T00:55:11.389Z,999.4
2022-12-08T00:56:11.397Z,999.4
2022-12-08T00:57:11.416Z,999.5
2022-12-08T00:58:11.417Z,999.4
2022-12-08T00:59:11.437Z,999.5
2022-12-08T01:00:11.454Z,999.4
2022-12-08T01:01:11.562Z,999.4
2022-12-08T01:02:11.491Z,999.4
2022-12-08T01:03:11.692Z,999.5
2022-12-08T01:04:11.514Z,999.5
2022-12-08T01:05:11.525Z,999.4
2022-12-08T01:06:11.539Z,999.4
2022-12-08T01:07:11.560Z,999.4
2022-12-08T01:08:11.729Z,999.4
2022-12-08T01:09:11.588Z,999.4
2022-12-08T01:10:11.609Z,999.4
2022-12-08T01:11:11.622Z,999.4
2022-12-08T01:12:11.626Z,999.4
2022-12-08T01:13:11.635Z,999.4
2022-12-08T01:14:11.658Z,999.3
2022-12-08T01:15:11.673Z,999.3
2022-12-08T01:16:11.851Z,999.3
2022-12-08T01:17:11.818Z,999.3
2022-12-08T01:18:11.710Z,999.3
2022-12-08T01:19:11.957Z,999.3
2022-12-08T01:37:12.327Z,999.2
2022-12-08T01:38:11.991Z,999.3
2022-12-08T01:39:12.012Z,999.2
2022-12-08T01:40:12.017Z,999.2
2022-12-08T01:41:12.031Z,999.2
2022-12-08T01:42:12.043Z,999.2
2022-12-08T01:43:12.065Z,999.2
2022-12-08T01:44:12.059Z,999.2
2022-12-08T01:45:12.078Z,999.2
2022-12-08T01:46:12.232Z,999.1
2022-12-08T01:47:12.115Z,999.1
2022-12-08T01:48:12.396Z,999.2
2022-12-08T01:49:12.135Z,999.1
2022-12-08T01:50:12.152Z,999.1
2022-12-08T01:51:12.160Z,999.1
2022-12-08T01:52:12.163Z,999.1
2022-12-08T01:53:12.183Z,999.1
2022-12-08T01:54:12.184Z,999.0
2022-12-08T01:55:12.195Z,999.0
2022-12-08T01:56:12.206Z,999.0
2022-12-08T01:57:12.221Z,998.9
2022-12-08T01:58:12.237Z,999.0
2022-12-08T01:59:12.249Z,999.1
2022-12-08T02:00:12.262Z,999.1
2022-12-08T02:01:12.604Z,999.0
2022-12-08T02:02:12.437Z,999.0
2022-12-08T02:03:12.305Z,999.0
2022-12-08T02:04:12.321Z,999.0
2022-12-08T02:05:12.335Z,998.9
2022-12-08T02:06:12.348Z,999.0
2022-12-08T02:07:12.364Z,999.0
2022-12-08T02:08:12.578Z,998.9
2022-12-08T02:09:12.384Z,998.9
2022-12-08T02:10:12.398Z,998.9
2022-12-08T02:11:12.413Z,998.9
2022-12-08T02:12:12.418Z,998.9
2022-12-08T02:13:12.432Z,998.9
2022-12-08T02:14:12.432Z,999.0
2022-12-08T02:15:12.451Z,998.9
2022-12-08T02:16:12.628Z,998.9
2022-12-08T02:17:12.454Z,998.9
2022-12-08T02:18:12.507Z,999.0
2022-12-08T02:19:30.594Z,998.9
2022-12-08T02:20:12.501Z,998.8
2022-12-08T02:21:12.509Z,998.9
2022-12-08T02:22:12.515Z,998.8
2022-12-08T02:23:12.538Z,998.8
2022-12-08T02:24:12.543Z,998.8
2022-12-08T02:25:12.550Z,998.8
2022-12-08T02:26:12.553Z,998.8
2022-12-08T02:27:12.564Z,998.8
2022-12-08T02:28:12.577Z,998.8
2022-12-08T02:29:12.596Z,998.8
2022-12-08T02:30:12.609Z,998.8
2022-12-08T02:31:12.746Z,998.8
2022-12-08T02:32:12.624Z,998.8
2022-12-08T02:33:12.639Z,998.8
2022-12-08T02:34:12.659Z,998.7
2022-12-08T02:35:12.676Z,998.8
2022-12-08T02:36:12.684Z,998.8
2022-12-08T02:37:12.699Z,998.7
2022-12-08T02:38:12.716Z,998.8
2022-12-08T02:39:12.719Z,998.7
2022-12-08T02:40:12.727Z,998.7
2022-12-08T02:41:12.745Z,998.8
2022-12-08T02:42:12.755Z,998.8
2022-12-08T02:43:12.760Z,998.6
2022-12-08T02:44:12.767Z,998.7
2022-12-08T02:45:12.792Z,998.7
2022-12-08T02:46:12.958Z,998.6
2022-12-08T02:47:12.849Z,998.7
2022-12-08T02:48:12.823Z,998.7
2022-12-08T02:49:12.841Z,998.6
2022-12-08T02:50:12.855Z,998.6
2022-12-08T02:51:12.872Z,998.5
2022-12-08T02:52:12.888Z,998.6
2022-12-08T02:54:13.068Z,998.6
2022-12-08T02:55:12.908Z,998.6
2022-12-08T02:56:12.931Z,998.6
2022-12-08T02:57:12.941Z,998.6
2022-12-08T02:58:12.969Z,998.6
2022-12-08T02:59:12.979Z,998.6
2022-12-08T03:00:13.004Z,998.6
2022-12-08T03:01:13.161Z,998.6
2022-12-08T03:02:13.185Z,998.5
2022-12-08T03:03:13.045Z,998.5
2022-12-08T03:04:13.063Z,998.5
2022-12-08T03:05:13.072Z,998.4
2022-12-08T03:06:13.076Z,998.4
2022-12-08T03:07:13.093Z,998.5
2022-12-08T03:08:13.308Z,998.5
2022-12-08T03:09:13.123Z,998.5
2022-12-08T03:10:13.136Z,998.4
2022-12-08T03:11:13.145Z,998.4
2022-12-08T03:12:13.159Z,998.4
2022-12-08T03:13:13.177Z,998.4
2022-12-08T03:14:13.183Z,998.4
2022-12-08T03:15:13.200Z,998.5
2022-12-08T03:16:13.377Z,998.4
2022-12-08T03:17:13.213Z,998.4
2022-12-08T03:18:13.236Z,998.4
2022-12-08T03:19:13.255Z,998.4
2022-12-08T03:20:13.273Z,998.4
2022-12-08T03:21:13.293Z,998.4
2022-12-08T03:22:13.316Z,998.3
2022-12-08T03:23:13.398Z,998.4
2022-12-08T03:24:13.412Z,998.3
2022-12-08T03:25:13.362Z,998.4
2022-12-08T03:26:13.371Z,998.4
2022-12-08T03:27:13.379Z,998.3
2022-12-08T03:28:13.399Z,998.3
2022-12-08T03:29:13.412Z,998.3
2022-12-08T03:30:13.424Z,998.3
2022-12-08T03:31:14.727Z,998.3
2022-12-08T03:32:13.460Z,998.3
2022-12-08T03:33:13.483Z,998.3
2022-12-08T03:34:13.476Z,998.2
2022-12-08T03:35:13.486Z,998.2
2022-12-08T03:36:13.496Z,998.2
2022-12-08T03:37:13.514Z,998.2
2022-12-08T03:38:13.522Z,998.3
2022-12-08T03:39:13.539Z,998.1
2022-12-08T03:40:13.537Z,998.2
2022-12-08T03:41:13.561Z,998.2
2022-12-08T03:42:13.580Z,998.1
2022-12-08T03:43:13.592Z,998.1
2022-12-08T03:44:13.599Z,998.2
2022-12-08T03:45:13.605Z,998.1
2022-12-08T03:46:13.734Z,998.1
2022-12-08T03:47:13.821Z,998.2
2022-12-08T03:48:13.666Z,998.2
2022-12-08T03:49:13.672Z,998.1
2022-12-08T03:50:13.698Z,998.2
2022-12-08T03:51:13.712Z,998.0
2022-12-08T03:52:13.720Z,998.1
2022-12-08T03:53:13.725Z,998.0
2022-12-08T03:54:13.759Z,998.1
2022-12-08T03:55:13.755Z,998.0
2022-12-08T03:56:13.762Z,998.0
2022-12-08T03:57:13.775Z,998.1
2022-12-08T03:58:13.791Z,998.1
2022-12-08T03:59:13.791Z,998.0
2022-12-08T04:00:13.864Z,998.0
2022-12-08T04:01:13.816Z,998.0
2022-12-08T04:02:13.906Z,998.1
2022-12-08T04:03:13.896Z,998.0
2022-12-08T04:04:13.841Z,998.0
2022-12-08T04:05:13.859Z,998.0
2022-12-08T04:06:13.872Z,998.0
2022-12-08T04:07:13.870Z,998.0
2022-12-08T04:08:14.253Z,998.0
2022-12-08T04:09:13.896Z,998.0
2022-12-08T04:10:13.907Z,998.0
2022-12-08T04:11:13.932Z,998.0
2022-12-08T04:12:13.945Z,997.9
2022-12-08T04:13:13.960Z,998.0
2022-12-08T04:14:13.969Z,997.9
2022-12-08T04:15:13.980Z,998.0
2022-12-08T04:16:14.082Z,998.0
2022-12-08T04:17:13.998Z,997.9
2022-12-08T04:18:14.011Z,997.9
2022-12-08T04:19:14.031Z,997.8
2022-12-08T04:20:14.050Z,997.8
2022-12-08T04:21:14.073Z,997.8
2022-12-08T04:22:14.091Z,997.9
2022-12-08T04:23:14.215Z,997.8
2022-12-08T04:24:14.125Z,997.8
2022-12-08T04:25:14.153Z,997.8
2022-12-08T04:26:14.149Z,997.8
2022-12-08T04:27:14.200Z,997.8
2022-12-08T04:28:14.180Z,997.8
2022-12-08T04:29:14.189Z,997.9
2022-12-08T04:30:14.201Z,997.8
2022-12-08T04:31:14.305Z,997.8
2022-12-08T04:32:14.237Z,997.8
2022-12-08T04:33:14.242Z,997.8
2022-12-08T04:34:14.248Z,997.8
2022-12-08T04:35:14.255Z,997.8
2022-12-08T04:36:14.267Z,997.8
2022-12-08T04:37:14.282Z,997.8
2022-12-08T04:38:14.310Z,997.8
2022-12-08T04:39:14.315Z,997.8
2022-12-08T04:40:14.328Z,997.8
2022-12-08T04:41:14.346Z,997.8
2022-12-08T04:42:14.378Z,997.8
2022-12-08T04:43:14.374Z,997.8
2022-12-08T04:44:14.378Z,997.8
2022-12-08T04:45:14.387Z,997.9
2022-12-08T04:46:14.572Z,997.8
2022-12-08T04:47:14.567Z,997.8
2022-12-08T04:48:14.408Z,997.8
2022-12-08T04:49:14.427Z,997.8
2022-12-08T04:50:14.430Z,997.8
2022-12-08T04:51:14.441Z,997.8
2022-12-08T04:52:14.449Z,997.8
2022-12-08T04:53:14.455Z,997.8
2022-12-08T04:54:14.464Z,997.9
2022-12-08T04:55:14.477Z,997.8
2022-12-08T04:56:14.478Z,997.9
2022-12-08T04:57:14.500Z,997.8
2022-12-08T04:58:14.517Z,997.8
2022-12-08T04:59:15.333Z,997.8
2022-12-08T05:00:14.537Z,997.7
2022-12-08T05:01:14.753Z,997.8
2022-12-08T05:02:15.102Z,997.8
2022-12-08T05:03:14.578Z,997.7
2022-12-08T05:04:14.578Z,997.7
2022-12-08T05:05:14.598Z,997.7
2022-12-08T05:06:14.613Z,997.7
2022-12-08T05:07:14.626Z,997.7
2022-12-08T05:08:14.827Z,997.7
2022-12-08T05:09:14.641Z,997.7
2022-12-08T05:10:14.647Z,997.6
2022-12-08T05:11:14.662Z,997.7
2022-12-08T05:12:14.673Z,997.7
2022-12-08T05:13:14.673Z,997.7
2022-12-08T05:14:14.686Z,997.7
2022-12-08T05:15:14.692Z,997.7
2022-12-08T05:16:14.967Z,997.6
2022-12-08T05:17:14.703Z,997.6
2022-12-08T05:18:14.770Z,997.6
2022-12-08T05:19:14.722Z,997.6
2022-12-08T05:20:14.749Z,997.7
2022-12-08T05:21:14.738Z,997.8
2022-12-08T05:22:14.745Z,997.7
2022-12-08T05:23:14.750Z,997.6
2022-12-08T05:24:14.757Z,997.7
2022-12-08T05:25:14.759Z,997.6
2022-12-08T05:26:14.769Z,997.7
2022-12-08T05:27:14.779Z,997.7
2022-12-08T05:29:14.790Z,997.7
2022-12-08T05:30:14.805Z,997.7
2022-12-08T05:31:15.025Z,997.8
2022-12-08T05:32:14.821Z,997.7
2022-12-08T05:33:14.823Z,997.8
2022-12-08T05:34:14.862Z,997.7
2022-12-08T05:35:14.837Z,997.8
2022-12-08T05:36:14.839Z,997.8
2022-12-08T05:37:14.845Z,997.8
2022-12-08T05:38:14.858Z,997.8
2022-12-08T05:39:14.864Z,997.9
2022-12-08T05:40:14.864Z,997.9
2022-12-08T05:41:14.874Z,997.9
2022-12-08T05:42:14.873Z,997.9
2022-12-08T05:43:14.884Z,997.8
2022-12-08T05:44:14.891Z,997.8
2022-12-08T05:45:14.899Z,997.8
2022-12-08T05:46:15.156Z,997.8
2022-12-08T05:47:14.918Z,997.8
2022-12-08T05:48:14.917Z,997.7
2022-12-08T05:49:14.922Z,997.8
2022-12-08T05:50:14.931Z,997.8
2022-12-08T05:51:14.933Z,997.7
2022-12-08T05:52:14.944Z,997.9
2022-12-08T05:53:14.953Z,997.9
2022-12-08T05:54:14.952Z,997.8
2022-12-08T05:55:14.963Z,997.9
2022-12-08T05:56:14.966Z,997.9
2022-12-08T05:57:14.974Z,997.8
2022-12-08T05:58:14.990Z,997.9
2022-12-08T05:59:14.987Z,998.0
2022-12-08T06:00:15.002Z,997.9
2022-12-08T06:01:14.997Z,997.8
2022-12-08T06:02:15.465Z,997.9
2022-12-08T06:03:15.158Z,997.9
2022-12-08T06:04:15.019Z,997.9
2022-12-08T06:05:15.018Z,997.9
2022-12-08T06:06:15.029Z,997.8
2022-12-08T06:07:16.451Z,997.9
2022-12-08T06:08:15.222Z,997.9
2022-12-08T06:09:15.042Z,997.9
2022-12-08T06:10:15.052Z,997.8
2022-12-08T06:11:15.060Z,997.9
2022-12-08T06:12:15.064Z,997.9
2022-12-08T06:13:15.073Z,997.8
2022-12-08T06:14:15.105Z,997.9
2022-12-08T06:15:15.083Z,998.0
2022-12-08T06:16:15.226Z,997.8
2022-12-08T06:17:15.094Z,997.9
2022-12-08T06:18:15.161Z,997.8
2022-12-08T06:19:15.107Z,997.8
2022-12-08T06:20:15.122Z,997.9
2022-12-08T06:21:15.125Z,997.9
2022-12-08T06:22:15.130Z,997.8
2022-12-08T06:23:15.145Z,997.8
2022-12-08T06:24:15.151Z,997.8
2022-12-08T06:25:15.147Z,997.9
2022-12-08T06:26:15.160Z,997.8
2022-12-08T06:27:15.166Z,997.9
2022-12-08T06:28:15.170Z,998.0
2022-12-08T06:29:15.193Z,998.0
2022-12-08T06:30:15.190Z,998.0
2022-12-08T06:31:15.191Z,997.8
2022-12-08T06:32:15.338Z,997.9
2022-12-08T06:33:15.202Z,998.0
2022-12-08T06:34:15.216Z,998.0
2022-12-08T06:35:15.219Z,997.9
2022-12-08T06:36:15.227Z,997.9
2022-12-08T06:37:15.230Z,998.0
2022-12-08T06:38:15.234Z,998.0
2022-12-08T06:39:15.234Z,998.0
2022-12-08T06:40:15.249Z,998.0
2022-12-08T06:41:15.255Z,998.0
2022-12-08T06:42:15.262Z,998.0
2022-12-08T06:43:15.274Z,998.0
2022-12-08T06:44:15.294Z,998.0
2022-12-08T06:45:15.314Z,998.0
2022-12-08T06:46:15.536Z,998.0
2022-12-08T06:47:15.309Z,998.0
2022-12-08T06:48:15.309Z,998.1
2022-12-08T06:49:15.325Z,998.1
2022-12-08T06:50:15.323Z,998.0
2022-12-08T06:51:15.338Z,998.1
2022-12-08T06:52:15.342Z,998.1
2022-12-08T06:53:15.356Z,998.1
2022-12-08T06:54:15.358Z,998.1
2022-12-08T06:55:51.181Z,998.0
2022-12-08T06:56:15.476Z,998.1
2022-12-08T06:57:15.370Z,998.0
2022-12-08T06:58:15.375Z,998.1
2022-12-08T06:59:15.376Z,998.0
2022-12-08T07:00:15.382Z,998.0
2022-12-08T07:01:15.614Z,998.0
2022-12-08T07:02:15.679Z,998.0
2022-12-08T07:03:15.419Z,998.0
2022-12-08T07:04:15.423Z,998.1
2022-12-08T07:05:15.485Z,998.1
2022-12-08T07:06:15.437Z,998.1
2022-12-08T07:07:15.461Z,998.2
2022-12-08T07:08:15.700Z,998.1
2022-12-08T07:09:15.461Z,998.1
2022-12-08T07:10:15.471Z,998.1
2022-12-08T07:11:22.494Z,998.1
2022-12-08T07:12:15.480Z,998.1
2022-12-08T07:13:15.478Z,998.2
2022-12-08T07:14:15.492Z,998.1
2022-12-08T07:15:15.496Z,998.2
2022-12-08T07:16:15.693Z,998.1
2022-12-08T07:17:15.629Z,998.1
2022-12-08T07:18:15.514Z,998.2
2022-12-08T07:19:15.530Z,998.1
2022-12-08T07:20:15.528Z,998.1
2022-12-08T07:21:15.541Z,998.1
2022-12-08T07:22:15.547Z,998.2
2022-12-08T07:23:15.555Z,998.1
2022-12-08T07:24:15.562Z,998.0
2022-12-08T07:25:15.577Z,998.1
2022-12-08T07:26:15.585Z,998.1
2022-12-08T07:27:15.593Z,998.1
2022-12-08T07:28:15.600Z,998.1
2022-12-08T07:29:15.604Z,998.1
2022-12-08T07:30:15.612Z,998.1
2022-12-08T07:31:15.702Z,998.1
2022-12-08T07:32:15.617Z,998.1
2022-12-08T07:33:15.637Z,998.0
2022-12-08T07:34:15.645Z,998.1
2022-12-08T07:35:15.653Z,998.2
2022-12-08T07:36:15.642Z,998.1
2022-12-08T07:37:15.658Z,998.1
2022-12-08T07:38:15.657Z,998.1
2022-12-08T07:39:15.664Z,998.1
2022-12-08T07:40:15.663Z,998.1
2022-12-08T07:41:15.672Z,998.1
2022-12-08T07:42:15.677Z,998.1
2022-12-08T07:43:15.684Z,998.0
2022-12-08T07:44:15.693Z,998.0
2022-12-08T07:45:15.705Z,998.1
2022-12-08T07:46:15.926Z,998.1
2022-12-08T07:47:15.707Z,998.1
2022-12-08T07:48:15.725Z,998.0
2022-12-08T07:49:15.723Z,998.0
2022-12-08T07:50:15.729Z,998.0
2022-12-08T07:51:15.738Z,998.1
2022-12-08T07:52:15.743Z,998.0
2022-12-08T07:53:15.742Z,998.0
2022-12-08T07:54:15.751Z,998.1
2022-12-08T07:55:15.764Z,998.1
2022-12-08T07:56:15.781Z,998.1
2022-12-08T07:57:15.770Z,998.1
2022-12-08T07:58:15.778Z,998.1
2022-12-08T07:59:15.788Z,998.1
2022-12-08T08:00:15.786Z,998.0
2022-12-08T08:01:16.229Z,998.2
2022-12-08T08:02:26.102Z,998.1
2022-12-08T08:03:15.912Z,998.1
2022-12-08T08:04:15.933Z,998.1
2022-12-08T08:05:15.825Z,998.1
2022-12-08T08:06:15.827Z,998.1
2022-12-08T08:07:15.837Z,998.1
2022-12-08T08:08:16.017Z,998.0
2022-12-08T08:09:15.853Z,998.1
2022-12-08T08:10:15.858Z,998.1
2022-12-08T08:11:21.849Z,998.2
2022-12-08T08:12:33.340Z,998.2
2022-12-08T08:13:15.876Z,998.2
2022-12-08T08:14:15.883Z,998.2
2022-12-08T08:15:15.906Z,998.2
2022-12-08T08:16:16.292Z,998.2
2022-12-08T08:17:16.144Z,998.2
2022-12-08T08:18:15.964Z,998.3
2022-12-08T08:19:15.912Z,998.2
2022-12-08T08:20:15.921Z,998.3
2022-12-08T08:22:15.933Z,998.3
2022-12-08T08:23:15.942Z,998.3
2022-12-08T08:24:15.945Z,998.3
2022-12-08T08:25:15.949Z,998.3
2022-12-08T08:26:15.955Z,998.3
2022-12-08T08:27:15.960Z,998.3
2022-12-08T08:28:15.971Z,998.3
2022-12-08T08:29:15.984Z,998.4
2022-12-08T08:30:21.281Z,998.3
2022-12-08T08:31:16.125Z,998.3
2022-12-08T08:32:16.002Z,998.3
2022-12-08T08:33:16.005Z,998.4
2022-12-08T08:34:16.009Z,998.4
2022-12-08T08:35:16.026Z,998.3
2022-12-08T08:36:16.026Z,998.3
2022-12-08T08:37:16.187Z,998.4
2022-12-08T08:38:16.035Z,998.3
2022-12-08T08:39:16.062Z,998.4
2022-12-08T08:40:16.044Z,998.4
2022-12-08T08:41:16.073Z,998.3
2022-12-08T08:42:16.058Z,998.4
2022-12-08T08:43:16.071Z,998.3
2022-12-08T08:44:16.071Z,998.5
2022-12-08T08:45:16.072Z,998.4
2022-12-08T08:46:16.251Z,998.4
2022-12-08T08:47:16.095Z,998.4
2022-12-08T08:48:16.089Z,998.4
2022-12-08T08:49:16.101Z,998.5
2022-12-08T08:50:16.120Z,998.5
2022-12-08T08:51:16.115Z,998.4
2022-12-08T08:52:16.121Z,998.5
2022-12-08T08:53:16.126Z,998.5
2022-12-08T08:54:16.133Z,998.4
2022-12-08T08:55:16.140Z,998.5
2022-12-08T08:56:16.152Z,998.4
2022-12-08T08:57:23.751Z,998.5
2022-12-08T08:58:16.178Z,998.5
2022-12-08T08:59:16.164Z,998.5
2022-12-08T09:00:16.161Z,998.4
2022-12-08T09:01:16.306Z,998.4
2022-12-08T09:02:16.393Z,998.4
2022-12-08T09:03:16.823Z,998.5
2022-12-08T09:04:16.347Z,998.5
2022-12-08T09:05:16.199Z,998.4
2022-12-08T09:06:16.433Z,998.5
2022-12-08T09:07:16.215Z,998.5
2022-12-08T09:08:16.360Z,998.4
2022-12-08T09:09:16.226Z,998.5
2022-12-08T09:10:16.229Z,998.4
2022-12-08T09:11:16.242Z,998.5
2022-12-08T09:12:16.251Z,998.5
2022-12-08T09:13:16.244Z,998.4
2022-12-08T09:14:16.261Z,998.5
2022-12-08T09:15:16.261Z,998.5
2022-12-08T09:16:16.392Z,998.5
2022-12-08T09:17:16.282Z,998.6
2022-12-08T09:18:16.326Z,998.6
2022-12-08T09:19:16.293Z,998.6
2022-12-08T09:20:16.299Z,998.5
2022-12-08T09:21:16.320Z,998.5
2022-12-08T09:22:16.343Z,998.5
2022-12-08T09:23:16.315Z,998.5
2022-12-08T09:24:16.323Z,998.5
2022-12-08T09:25:16.326Z,998.6
2022-12-08T09:26:16.334Z,998.5
2022-12-08T09:27:16.335Z,998.6
2022-12-08T09:28:16.341Z,998.5
2022-12-08T09:29:16.347Z,998.6
2022-12-08T09:30:16.356Z,998.5
2022-12-08T09:31:16.507Z,998.5
2022-12-08T09:32:16.365Z,998.5
2022-12-08T09:33:16.372Z,998.5
2022-12-08T09:34:16.377Z,998.6
2022-12-08T09:35:16.381Z,998.6
2022-12-08T09:36:16.394Z,998.5
2022-12-08T09:37:16.404Z,998.6
2022-12-08T09:38:16.406Z,998.5
2022-12-08T09:39:16.410Z,998.5
2022-12-08T09:40:16.415Z,998.6
2022-12-08T09:41:16.430Z,998.6
2022-12-08T09:42:16.440Z,998.6
2022-12-08T09:43:16.444Z,998.6
2022-12-08T09:44:16.447Z,998.6
2022-12-08T09:45:16.448Z,998.6
2022-12-08T09:46:16.545Z,998.6
2022-12-08T09:47:16.470Z,998.6
2022-12-08T09:48:16.470Z,998.6
2022-12-08T09:49:16.493Z,998.5
2022-12-08T09:50:16.480Z,998.6
2022-12-08T09:51:16.492Z,998.6
2022-12-08T09:52:16.570Z,998.6
2022-12-08T09:53:16.596Z,998.6
2022-12-08T09:54:16.576Z,998.6
2022-12-08T09:55:16.515Z,998.6
2022-12-08T09:56:16.519Z,998.6
2022-12-08T09:57:16.524Z,998.6
2022-12-08T09:58:16.539Z,998.6
2022-12-08T09:59:16.544Z,998.6
2022-12-08T10:00:16.562Z,998.6
2022-12-08T10:01:16.703Z,998.7
2022-12-08T10:02:16.671Z,998.5
2022-12-08T10:03:17.242Z,998.6
2022-12-08T10:04:16.585Z,998.6
2022-12-08T10:05:16.720Z,998.6
2022-12-08T10:06:16.601Z,998.6
2022-12-08T10:07:16.605Z,998.6
2022-12-08T10:08:16.974Z,998.6
2022-12-08T10:09:22.921Z,998.7
2022-12-08T10:10:16.630Z,998.7
2022-12-08T10:11:16.637Z,998.6
2022-12-08T10:12:16.644Z,998.7
2022-12-08T10:13:16.651Z,998.7
2022-12-08T10:14:16.653Z,998.7
2022-12-08T10:15:16.664Z,998.7
2022-12-08T10:16:29.421Z,998.6
2022-12-08T10:17:16.676Z,998.7
2022-12-08T10:18:16.691Z,998.6
2022-12-08T10:19:16.698Z,998.7
2022-12-08T10:20:16.721Z,998.7
2022-12-08T10:21:16.718Z,998.7
2022-12-08T10:22:16.731Z,998.6
2022-12-08T10:23:16.768Z,998.7
2022-12-08T10:24:16.759Z,998.7
2022-12-08T10:25:16.808Z,998.7
2022-12-08T10:26:16.763Z,998.7
2022-12-08T10:27:16.761Z,998.7
2022-12-08T10:28:16.776Z,998.7
2022-12-08T10:29:16.784Z,998.8
2022-12-08T10:30:16.798Z,998.7
2022-12-08T10:31:16.969Z,998.7
2022-12-08T10:32:16.853Z,998.8
2022-12-08T10:33:16.827Z,998.7
2022-12-08T10:34:16.839Z,998.7
2022-12-08T10:35:16.844Z,998.7
2022-12-08T10:36:16.852Z,998.8
2022-12-08T10:37:16.848Z,998.7
2022-12-08T10:38:16.852Z,998.7
2022-12-08T10:39:16.865Z,998.7
2022-12-08T10:40:16.877Z,998.7
2022-12-08T10:41:16.878Z,998.6
2022-12-08T10:42:16.882Z,998.7
2022-12-08T10:43:16.888Z,998.8
2022-12-08T10:44:16.910Z,998.7
2022-12-08T10:45:16.907Z,998.7
2022-12-08T10:46:17.083Z,998.7
2022-12-08T10:47:16.922Z,998.7
2022-12-08T10:48:16.921Z,998.7
2022-12-08T10:49:16.924Z,998.7
2022-12-08T10:50:16.935Z,998.7
2022-12-08T10:51:16.939Z,998.6
2022-12-08T10:52:16.946Z,998.7
2022-12-08T10:53:16.955Z,998.8
2022-12-08T10:54:22.149Z,998.8
2022-12-08T10:55:16.966Z,998.8
2022-12-08T10:56:17.013Z,998.6
2022-12-08T10:57:16.979Z,998.7
2022-12-08T10:58:16.987Z,998.8
2022-12-08T10:59:16.989Z,998.7
2022-12-08T11:00:17.747Z,998.7
2022-12-08T11:01:17.076Z,998.8
2022-12-08T11:02:17.221Z,998.7
2022-12-08T11:03:17.022Z,998.7
2022-12-08T11:04:17.028Z,998.6
2022-12-08T11:05:17.039Z,998.7
2022-12-08T11:06:17.047Z,998.8
2022-12-08T11:07:17.049Z,998.7
2022-12-08T11:08:17.225Z,998.7
2022-12-08T11:09:17.063Z,998.8
2022-12-08T11:10:17.247Z,998.8
2022-12-08T11:11:17.178Z,998.7
2022-12-08T11:12:17.098Z,998.7
2022-12-08T11:13:17.089Z,998.8
2022-12-08T11:14:17.098Z,998.8
2022-12-08T11:15:17.107Z,998.7
2022-12-08T11:16:17.259Z,998.7
2022-12-08T11:17:17.128Z,998.8
2022-12-08T11:18:17.120Z,998.8
2022-12-08T11:19:17.187Z,998.7
2022-12-08T11:20:17.275Z,998.7
2022-12-08T11:21:17.142Z,998.8
2022-12-08T11:22:17.146Z,998.8
2022-12-08T11:23:17.159Z,998.8
2022-12-08T11:24:17.165Z,998.8
2022-12-08T11:25:17.174Z,998.8
2022-12-08T11:26:17.175Z,998.8
2022-12-08T11:27:17.337Z,998.8
2022-12-08T11:28:17.189Z,998.9
2022-12-08T11:29:17.194Z,998.8
2022-12-08T11:30:18.091Z,998.9
2022-12-08T11:31:17.298Z,998.8
2022-12-08T11:32:17.215Z,998.8
2022-12-08T11:33:17.216Z,998.8
2022-12-08T11:34:17.223Z,998.8
2022-12-08T11:35:17.249Z,998.8
2022-12-08T11:36:17.270Z,998.8
2022-12-08T11:37:17.257Z,998.8
2022-12-08T11:38:22.742Z,998.8
2022-12-08T11:39:17.270Z,998.9
2022-12-08T11:40:17.268Z,998.8
2022-12-08T11:41:17.286Z,998.8
2022-12-08T11:42:17.286Z,998.8
2022-12-08T11:43:17.294Z,998.9
2022-12-08T11:44:17.304Z,998.8
2022-12-08T11:45:17.302Z,998.8
2022-12-08T11:46:17.508Z,998.9
2022-12-08T11:47:17.317Z,998.8
2022-12-08T11:48:17.324Z,998.9
2022-12-08T11:49:17.331Z,998.9
2022-12-08T11:50:20.010Z,998.9
2022-12-08T11:51:17.342Z,998.8
2022-12-08T11:52:17.367Z,998.8
2022-12-08T11:53:17.355Z,998.8
2022-12-08T11:54:17.363Z,998.8
2022-12-08T11:55:17.370Z,998.8
2022-12-08T11:56:17.376Z,998.8
2022-12-08T11:57:17.393Z,998.8
2022-12-08T11:58:17.557Z,998.8
2022-12-08T11:59:17.403Z,998.8
2022-12-08T12:00:17.409Z,998.9
2022-12-08T12:01:17.414Z,998.8
2022-12-08T12:02:17.580Z,998.8
2022-12-08T12:03:17.557Z,998.9
2022-12-08T12:04:17.437Z,998.8
2022-12-08T12:05:40.099Z,998.9
2022-12-08T12:07:26.097Z,998.8
2022-12-08T12:08:17.570Z,998.8
2022-12-08T12:09:17.472Z,998.8
2022-12-08T12:10:17.482Z,998.9
2022-12-08T12:11:17.488Z,998.9
2022-12-08T12:12:17.493Z,998.9
2022-12-08T12:13:17.499Z,998.8
2022-12-08T12:14:17.511Z,998.8
2022-12-08T12:15:17.514Z,999.0
2022-12-08T12:16:17.615Z,998.9
2022-12-08T12:17:17.532Z,998.8
2022-12-08T12:18:17.539Z,998.8
2022-12-08T12:19:17.541Z,998.8
2022-12-08T12:20:17.557Z,998.8
2022-12-08T12:21:17.561Z,998.7
2022-12-08T12:22:17.566Z,998.8
2022-12-08T12:23:17.609Z,998.8
2022-12-08T12:24:26.672Z,998.8
2022-12-08T12:25:17.597Z,998.8
2022-12-08T12:26:17.607Z,998.8
2022-12-08T12:27:17.600Z,998.9
2022-12-08T12:28:17.613Z,998.9
2022-12-08T12:29:17.634Z,998.9
2022-12-08T12:30:17.644Z,998.9
2022-12-08T12:31:17.842Z,998.9
2022-12-08T12:32:17.638Z,998.9
2022-12-08T12:33:17.740Z,998.9
2022-12-08T12:34:17.649Z,998.9
2022-12-08T12:35:21.405Z,998.8
2022-12-08T12:36:17.664Z,998.8
2022-12-08T12:37:17.665Z,999.0
2022-12-08T12:38:17.693Z,998.9
2022-12-08T12:39:17.691Z,998.9
2022-12-08T12:40:17.693Z,998.9
2022-12-08T12:41:25.587Z,998.9
2022-12-08T12:42:17.709Z,998.9
2022-12-08T12:43:17.719Z,999.0
2022-12-08T12:44:17.771Z,999.0
2022-12-08T12:45:17.740Z,999.0
2022-12-08T12:46:17.914Z,998.9
2022-12-08T12:47:17.756Z,999.0
2022-12-08T12:48:17.770Z,998.9
2022-12-08T12:49:17.777Z,999.0
2022-12-08T12:50:17.814Z,999.1
2022-12-08T12:51:17.791Z,999.0
2022-12-08T12:52:17.797Z,998.9
2022-12-08T12:53:17.814Z,998.9
2022-12-08T12:54:17.812Z,999.0
2022-12-08T12:55:17.820Z,999.0
2022-12-08T12:56:17.826Z,999.0
2022-12-08T12:57:17.839Z,999.0
2022-12-08T12:58:17.848Z,998.9
2022-12-08T12:59:17.853Z,998.8
2022-12-08T13:00:17.858Z,998.9
2022-12-08T13:01:17.944Z,999.0
2022-12-08T13:02:18.037Z,999.0
2022-12-08T13:03:17.880Z,999.0
2022-12-08T13:04:17.892Z,998.9
2022-12-08T13:05:17.902Z,998.9
2022-12-08T13:06:17.904Z,999.0
2022-12-08T13:07:17.915Z,998.9
2022-12-08T13:08:18.146Z,999.0
2022-12-08T13:09:17.950Z,998.9
2022-12-08T13:10:17.941Z,998.9
2022-12-08T13:11:17.946Z,998.9
2022-12-08T13:12:17.955Z,999.0
2022-12-08T13:13:17.976Z,998.9